F/V Moorea — FMIT — position and weather

sailwx.info

Track history (hours):
 
Tides and Currents Weather Stations Pressure Air Temp Water Temp Dewpoint Dewpoint Depression Visibility Wind Speed Wind Dir Waves Ship Positions

F/V Moorea

Last reported at 2014-Jul-05 01:28 UTC. Time now 2014-Jul-22 23:41 UTC.
Position N 46°25' W 002°06'.
Warning: this ship's position is 17 days out of date.

Length 18 m.

Type: Fishing. MMSI: 228239900.

Date/timePositionNaut miles runAvg speedWind from/ knotsBaromVisibWave heightAir tempDewpointWater temp
2014-Jul-05 01:28N 46°25' W 002°06'8 8.9
2014-Jul-05 00:33N 46°27' W 001°55'6 5.7
2014-Jul-04 23:33N 46°30' W 001°47'0 0.2
2014-Jul-04 22:33N 46°30' W 001°47'4 3.9
2014-Jul-04 21:33N 46°28' W 001°52'35 3.8
2014-Jul-04 12:15N 46°19' W 002°41'0 0.2
2014-Jul-04 10:33N 46°19' W 002°42'0 0.2
2014-Jul-04 08:24N 46°18' W 002°42'0 0.1
2014-Jul-04 06:33N 46°18' W 002°42'2 1.8
2014-Jul-04 05:33N 46°20' W 002°42'1 1.1
2014-Jul-04 04:33N 46°19' W 002°41'3 2.6
2014-Jul-04 03:19N 46°22' W 002°44'3 0.4
2014-Jul-03 19:26N 46°19' W 002°41'2 0.5
2014-Jul-03 16:33N 46°18' W 002°43'11 0.8
2014-Jul-03 02:22N 46°25' W 002°30'13 6.9
2014-Jul-03 00:33N 46°26' W 002°12'1010.2
2014-Jul-02 23:33N 46°27' W 001°57'7 7.1
2014-Jul-02 22:34N 46°30' W 001°48'2 2.5
2014-Jul-02 21:33N 46°28' W 001°50'9 9.4
2014-Jul-02 20:33N 46°27' W 002°04'10 9.5
2014-Jul-02 19:33N 46°26' W 002°18'10 9.6
2014-Jul-02 18:33N 46°25' W 002°31'13 9.5
2014-Jul-02 17:10N 46°24' W 002°50'  
2014-Jun-28 00:29N 47°18' W 002°41'  
2014-Jun-25 06:31N 47°13' W 003°39'19 8.7
2014-Jun-25 04:22N 47°15' W 003°11'  
Track history (hours):
 
Tides and Currents Weather Stations Pressure Air Temp Water Temp Dewpoint Dewpoint Depression Visibility Wind Speed Wind Dir Waves Ship Positions

F/V Moorea

Last reported at 2014-Jul-05 01:28 UTC. Time now 2014-Jul-22 23:41 UTC.
Position N 46°25' W 002°06'.
Warning: this ship's position is 17 days out of date.

Length 18 m.

Type: Fishing. MMSI: 228239900.

Date/timePositionNaut miles runAvg speedWind from/ knotsBaromVisibWave heightAir tempDewpointWater temp
2014-Jul-05 01:28N 46°25' W 002°06'8 8.9
2014-Jul-05 00:33N 46°27' W 001°55'6 5.7
2014-Jul-04 23:33N 46°30' W 001°47'0 0.2
2014-Jul-04 22:33N 46°30' W 001°47'4 3.9
2014-Jul-04 21:33N 46°28' W 001°52'35 3.8
2014-Jul-04 12:15N 46°19' W 002°41'0 0.2
2014-Jul-04 10:33N 46°19' W 002°42'0 0.2
2014-Jul-04 08:24N 46°18' W 002°42'0 0.1
2014-Jul-04 06:33N 46°18' W 002°42'2 1.8
2014-Jul-04 05:33N 46°20' W 002°42'1 1.1
2014-Jul-04 04:33N 46°19' W 002°41'3 2.6
2014-Jul-04 03:19N 46°22' W 002°44'3 0.4
2014-Jul-03 19:26N 46°19' W 002°41'2 0.5
2014-Jul-03 16:33N 46°18' W 002°43'11 0.8
2014-Jul-03 02:22N 46°25' W 002°30'13 6.9
2014-Jul-03 00:33N 46°26' W 002°12'1010.2
2014-Jul-02 23:33N 46°27' W 001°57'7 7.1
2014-Jul-02 22:34N 46°30' W 001°48'2 2.5
2014-Jul-02 21:33N 46°28' W 001°50'9 9.4
2014-Jul-02 20:33N 46°27' W 002°04'10 9.5
2014-Jul-02 19:33N 46°26' W 002°18'10 9.6
2014-Jul-02 18:33N 46°25' W 002°31'13 9.5
2014-Jul-02 17:10N 46°24' W 002°50'  
2014-Jun-28 00:29N 47°18' W 002°41'  
2014-Jun-25 06:31N 47°13' W 003°39'19 8.7
2014-Jun-25 04:22N 47°15' W 003°11'  

Dump ship's entire track history